Tiempo atmosférico en la estación meteorológica de Barcelona, Barcelona (25 m.)



Fecha
DESCASC
Temp. máxima en grados centígrados (hora)
DESCASC
Temp. mínima en grados centígrados (hora)
DESCASC
Temp. media en grados centígrados
DESCASC
Racha de viento máxima en m/sg (hora)
DESCASC
Velocidad máxima media en intervalos de 10 minutos(hora)
DESCASC
Precipitaciones diarias en mm
DESCASC
Precipitaciones de 00:00 a 06:00 en mm
DESCASC
Precipitaciones de 06:00 a 12:00 en mm
DESCASC
Precipitaciones de 12:00 a 18:00 en mm
DESCASC
Precipitaciones de 18:00 a 24:00 en mm
DESCASC
22-04-2019 16.8 (16:50) 14.5 (08:40) 15.6 15.83 (10:30) 11.94 (10:40) 0.8 0 0.8 0 0
21-04-2019 16.5 (09:20) 14.2 (00:20) 15.3 17.78 (09:40) 13.33 (09:50) 0 0 0 0 0
20-04-2019 17.4 (14:40) 14.6 (21:40) 16 16.67 (12:40) 13.06 (12:40) 0.1 0 0 0 0.1
19-04-2019 17.6 (11:30) 14.6 (08:30) 16.1 20.28 (16:40) 17.22 (16:40) 0 0 0 0 0
18-04-2019 15.8 (16:20) 12.9 (00:00) 14.3 18.33 (15:40) 15 (15:40) 0 0 0 0 0
17-04-2019 17.6 (17:00) 10.9 (00:00) 14.3 6.39 (23:50) 5.56 (23:50) 0 0 0 0 0
16-04-2019 17.4 (15:00) 10.8 (00:00) 14.1 6.67 (18:40) 5.56 (18:40) 0.2 0.1 0.1 0 0
15-04-2019 16 (14:00) 11.4 (00:00) 13.7 7.5 (06:20) 6.11 (06:20) 0 0 0 0 0
14-04-2019 15.3 (11:20) 10 (00:00) 12.7 7.5 (14:30) 6.39 (13:00) 0 0 0 0 0
13-04-2019 17.2 (14:00) 10.8 (00:00) 14 6.94 (16:40) 5.83 (16:40) 0 0 0 0 0
12-04-2019 17.4 (11:20) 12.2 (00:00) 14.8 7.78 (16:50) 6.39 (16:40) 0 0 0 0 0
11-04-2019 18 (12:50) 11.7 (00:00) 14.8 8.06 (07:00) 7.22 (13:00) 0 0 0 0 0
10-04-2019 17.3 (12:50) 10.5 (00:00) 13.9 18.61 (16:30) 7.5 (14:10) 2.8 0 0 2.8 0
09-04-2019 16 (16:00) 10.6 (00:00) 13.3 8.61 (18:30) 6.11 (14:20) 3.3 0.4 0 0.7 2.2
08-04-2019 16.9 (19:20) 8.4 (00:00) 12.6 11.39 (17:30) 8.33 (17:40) 0 0 0 0 0
07-04-2019 15.8 (12:20) 10.2 (00:00) 13 8.61 (18:10) 6.39 (12:50) 2 0 0 1.9 0.1
06-04-2019 16.4 (15:00) 8.6 (00:00) 12.5 12.22 (11:10) 8.89 (17:20) 1.6 1.6 0 0 0
05-04-2019 14.8 (13:50) 7.2 (00:00) 11 11.94 (15:10) 9.17 (14:10) 2 0 0 0 2
04-04-2019 14.4 (13:20) 7 (00:00) 10.7 9.44 (11:00) 6.67 (00:10) 0 0 0 0 0
03-04-2019 16.1 (15:00) 9.3 (00:00) 12.7 10.28 (18:50) 7.78 (23:50) 3 1.2 0 0 1.8
02-04-2019 16.5 (17:20) 11.4 (00:00) 13.9 10.83 (18:00) 8.89 (18:00) 0 0 0 0 0
01-04-2019 17.1 (12:40) 11.4 (00:00) 14.3 6.39 (00:10) 5.56 (00:10) 0 0 0 0 0
31-03-2019 14.5 (14:40) 10 (00:00) 12.3 11.11 (16:20) 9.44 (17:00) 0 0 0 0 0
30-03-2019 16.2 (14:50) 8.8 (00:00) 12.5 6.94 (19:40) 5.83 (18:00) 0 0 0 0 0
29-03-2019 16.5 (14:20) 8.5 (00:00) 12.5 15 (20:20) 6.67 (18:40) 0 0 0 0 0
28-03-2019 16.9 (11:50) 8.6 (00:00) 12.8 6.67 (14:40) 4.72 (14:50) 0 0 0 0 0
27-03-2019 16 (11:30) 7.2 (00:00) 11.6 8.89 (12:40) 7.5 (12:50) 0 0 0 0 0

Gráficas

Temp. máximas Temp. mínimas Temp. medias Precipitaciones Rachas de viento máximas Velocidades máximas media en intervalos de 10 minutos

Datos horarios

Fecha y hora oficial Temperatura (ºC) Velocidad del viento (km/h) Dirección del viento Racha (km/h) Dirección de racha Precipitación (mm) Presión (hPa) Tendencia (hPa) Humedad (%)
2019-04-25 23:00:00 16.3 10 Oeste 24 Noroeste 0 -- -- 52
2019-04-25 22:00:00 15 8 Sudoeste 13 Sudoeste 0 -- -- 88
2019-04-25 21:00:00 15.5 9 Oeste 27 Sudoeste 0 -- -- 79
2019-04-25 20:00:00 16 13 Sudoeste 35 Sudoeste 0 -- -- 78
2019-04-25 19:00:00 16.9 16 Sudoeste 30 Sudoeste 0 -- -- 74
2019-04-25 18:00:00 15.8 8 Sudoeste 23 Oeste 0 -- -- 89
2019-04-25 17:00:00 15.8 7 Sur 13 Sur 0.1 -- -- 80
2019-04-25 16:00:00 16.9 8 Sudeste 21 Norte 0 -- -- 69
2019-04-25 15:00:00 15.5 9 Norte 23 Norte 0 -- -- 74
2019-04-25 14:00:00 15 0 Calma 20 Sudoeste 0 -- -- 75
2019-04-25 13:00:00 16.7 3 Sudoeste 24 Sudoeste 0 -- -- 80
2019-04-25 12:00:00 16.3 15 Sudoeste 34 Sudoeste 0 -- -- 85
2019-04-25 11:00:00 16.3 21 Sudoeste 40 Sudoeste 0 -- -- 85
2019-04-25 10:00:00 15.7 23 Sudoeste 42 Oeste 0 -- -- 86
2019-04-25 09:00:00 15.2 19 Sudoeste 37 Sudoeste 0 -- -- 88
2019-04-25 08:00:00 14.8 21 Sudoeste 35 Sudoeste 0 -- -- 88
2019-04-25 07:00:00 14.5 15 Sudoeste 34 Sudoeste 0 -- -- 88
2019-04-25 06:00:00 14.4 12 Sudoeste 33 Oeste 0 -- -- 88
2019-04-25 05:00:00 14.5 18 Sudoeste 35 Sur 0 -- -- 88
2019-04-25 04:00:00 14.5 16 Sudoeste 35 Sudoeste 0 -- -- 88
2019-04-25 03:00:00 14.2 18 Sudoeste 29 Sudoeste 0 -- -- 90
2019-04-25 02:00:00 14.4 17 Sudoeste 36 Sudoeste 0 -- -- 89
2019-04-25 01:00:00 14.6 19 Sudoeste 35 Sudoeste 0 -- -- 87
2019-04-25 00:00:00 14.3 8 Sur 21 Sudoeste 0 -- -- 87
2019-04-24 23:00:00 14.4 8 Sudoeste 18 Sudoeste 0 -- -- 81
2019-04-24 22:00:00 13.8 9 Sudoeste 15 Sudoeste 0 -- -- 83
2019-04-24 21:00:00 14 13 Sudoeste 29 Sudoeste 0 -- -- 81
2019-04-24 20:00:00 14.7 22 Sudoeste 36 Sudoeste 0 -- -- 69
2019-04-24 19:00:00 15.4 20 Sudoeste 41 Sudoeste 0 -- -- 63
2019-04-24 18:00:00 16.3 19 Sudoeste 49 Sudoeste 0 -- -- 52
2019-04-24 17:00:00 15.8 26 Sudoeste 85 Sudoeste 0 -- -- 57
2019-04-24 16:00:00 15.4 26 Sudoeste 50 Sudoeste 0 -- -- 53
2019-04-24 15:00:00 15.3 31 Sudoeste 51 Sudoeste 0 -- -- 60
2019-04-24 14:00:00 15.7 28 Sudoeste 45 Sudoeste 0 -- -- 60
2019-04-24 13:00:00 14.9 29 Sudoeste 39 Sudoeste 0 -- -- 71
2019-04-24 12:00:00 14.7 31 Sudoeste 40 Sudoeste 0 -- -- 66
2019-04-24 11:00:00 15.3 26 Sudoeste 33 Sudoeste 0 -- -- 54
2019-04-24 10:00:00 15.2 10 Oeste 25 Noroeste 0 -- -- 50
2019-04-24 09:00:00 13.7 17 Noroeste 28 Noroeste 0 -- -- 54
2019-04-24 08:00:00 13.9 8 Oeste 18 Oeste 0 -- -- 64
2019-04-24 07:00:00 13.4 8 Sudoeste 24 Sudoeste 0 -- -- 88
2019-04-24 06:00:00 13.8 9 Sudoeste 28 Oeste 0 -- -- 87
2019-04-24 05:00:00 14.1 16 Sudoeste 30 Sudoeste 0 -- -- 92
2019-04-24 04:00:00 14.5 10 Sudoeste 25 Oeste 0 -- -- 88
2019-04-24 03:00:00 14.6 9 Sudoeste 22 Oeste 0 -- -- 87
2019-04-24 02:00:00 14.7 14 Sudoeste 24 Sudoeste 0 -- -- 85
2019-04-24 01:00:00 14.3 14 Sudoeste 23 Sudoeste 0 -- -- 88
2019-04-24 00:00:00 14 8 Sudoeste 10 Sudoeste 0 -- -- 94
2019-04-23 23:00:00 14.4 4 Sur 15 Sudeste 0 -- -- 94
2019-04-23 22:00:00 14.7 13 Sudeste 15 Sudeste 0 -- -- 94
2019-04-23 21:00:00 14.8 7 Sur 22 Sudoeste 0 -- -- 92
2019-04-23 20:00:00 15.4 15 Sudoeste 28 Sudoeste 0 -- -- 87
2019-04-23 19:00:00 15.1 14 Sudoeste 22 Sur 0 -- -- 92
2019-04-23 18:00:00 16.3 9 Sur 23 Sudoeste 0 -- -- 89
2019-04-23 17:00:00 15.5 16 Sur 29 Sudoeste 0 -- -- 88
2019-04-23 16:00:00 15.4 24 Sudoeste 33 Sur 0 -- -- 85
2019-04-23 15:00:00 16.2 25 Sudoeste 34 Sur 0 -- -- 79
2019-04-23 14:00:00 16.1 24 Sudoeste 30 Sudoeste 0 -- -- 81
2019-04-23 13:00:00 15.3 17 Sur 21 Sudoeste 0 -- -- 88
2019-04-23 12:00:00 14.5 10 Sur 14 Sudoeste 0 -- -- 91
2019-04-23 11:00:00 14.6 5 Oeste 16 Oeste 0 -- -- 89
2019-04-23 10:00:00 14.8 8 Oeste 19 Oeste 0.1 -- -- 87
2019-04-23 09:00:00 14.4 4 Sur 6 Sudeste 0 -- -- 91
2019-04-23 08:00:00 14.3 2 Sudeste 5 Sudeste 0 -- -- 93
2019-04-23 07:00:00 14.3 0 Calma 5 Sudeste 0 -- -- 93
2019-04-23 06:00:00 14.3 0 Calma 9 Sudoeste 0 -- -- 92
2019-04-23 05:00:00 14.8 0 Calma 8 Noroeste 0.1 -- -- 88
2019-04-23 04:00:00 14.7 4 Noroeste 8 Norte 0 -- -- 86
2019-04-23 03:00:00 14.5 0 Calma 12 Noroeste 0 -- -- 88
2019-04-23 02:00:00 14.2 6 Norte 21 Nordeste 0.1 -- -- 89
2019-04-23 01:00:00 14.4 8 Norte 27 Nordeste 1 -- -- 89
2019-04-23 00:00:00 15.7 15 Nordeste 30 Nordeste 0 -- -- 77
2019-04-22 23:00:00 15.5 17 Nordeste 37 Nordeste 0 -- -- 75
2019-04-22 22:00:00 16.1 19 Nordeste 37 Nordeste 0 -- -- 65
2019-04-22 21:00:00 16.2 18 Nordeste 35 Nordeste 0 -- -- 64
2019-04-22 20:00:00 16.3 20 Nordeste 35 Nordeste 0 -- -- 65
2019-04-22 19:00:00 16.3 19 Nordeste 40 Este 0 -- -- 65
2019-04-22 18:00:00 16.3 22 Nordeste 39 Este 0 -- -- 69
2019-04-22 17:00:00 15.3 31 Este 43 Este 0 -- -- 82
2019-04-22 16:00:00 15.8 30 Este 41 Este 0 -- -- 73
2019-04-22 15:00:00 16.1 22 Este 45 Este 0 -- -- 73
2019-04-22 14:00:00 16 28 Este 47 Este 0 -- -- 74
2019-04-22 13:00:00 15.8 36 Este 48 Este 0 -- -- 76
2019-04-22 12:00:00 15.7 33 Este 46 Este 0 -- -- 77
2019-04-22 11:00:00 15.5 37 Este 57 Este 0 -- -- 74
2019-04-22 10:00:00 15.1 26 Este 44 Este 0.1 -- -- 73
2019-04-22 09:00:00 14.7 30 Este 45 Este 0.7 -- -- 76
2019-04-22 08:00:00 15.1 30 Nordeste 48 Nordeste 0 -- -- 72
2019-04-22 07:00:00 15.2 29 Nordeste 51 Este 0 -- -- 64
2019-04-22 06:00:00 15.2 21 Este 35 Este 0 -- -- 69
2019-04-22 05:00:00 15.3 23 Nordeste 38 Nordeste 0 -- -- 68
2019-04-22 04:00:00 15.4 26 Este 46 Este 0 -- -- 66
2019-04-22 03:00:00 15.4 33 Este 45 Este 0 -- -- 69
2019-04-22 02:00:00 16 23 Nordeste 40 Nordeste 0 -- -- 57
2019-04-22 01:00:00 16.1 21 Nordeste 51 Este 0 -- -- 59
2019-04-22 00:00:00 16 29 Nordeste 56 Este 0 -- -- 60
2019-04-21 23:00:00 15.9 23 Nordeste 44 Nordeste 0 -- -- 64
2019-04-21 22:00:00 15.6 28 Nordeste 41 Este 0 -- -- 69
2019-04-21 21:00:00 15.3 24 Este 49 Este 0 -- -- 75
2019-04-21 20:00:00 14.8 31 Este 50 Este 0 -- -- 82
2019-04-21 19:00:00 15 44 Este 53 Este 0 -- -- 82
2019-04-21 18:00:00 15.2 44 Este 55 Este 0 -- -- 80
2019-04-21 17:00:00 15.5 46 Este 55 Este 0 -- -- 78
2019-04-21 16:00:00 16.5 36 Este 51 Este 0 -- -- 69
2019-04-21 15:00:00 15.7 41 Este 52 Este 0 -- -- 73
2019-04-21 14:00:00 16.1 39 Este 51 Este 0 -- -- 68
2019-04-21 13:00:00 15.4 44 Este 59 Este 0 -- -- 70
2019-04-21 12:00:00 14.9 44 Este 61 Este 0 -- -- 75
2019-04-21 11:00:00 15.7 47 Este 58 Este 0 -- -- 69
2019-04-21 10:00:00 15.6 46 Este 64 Este 0 -- -- 69
2019-04-21 09:00:00 16.3 26 Este 44 Nordeste 0 -- -- 55
2019-04-21 08:00:00 15.9 18 Nordeste 31 Este 0 -- -- 55
2019-04-21 07:00:00 15.7 17 Nordeste 49 Nordeste 0 -- -- 55
2019-04-21 06:00:00 15 36 Este 50 Este 0 -- -- 67
2019-04-21 05:00:00 15.6 30 Este 42 Este 0 -- -- 58
2019-04-21 04:00:00 15.4 18 Nordeste 40 Este 0 -- -- 55
2019-04-21 03:00:00 15.8 19 Nordeste 38 Nordeste 0 -- -- 54
2019-04-21 02:00:00 15.4 23 Este 41 Nordeste 0 -- -- 59
2019-04-21 01:00:00 15.6 25 Nordeste 42 Nordeste 0 -- -- 54
2019-04-21 00:00:00 16.1 17 Nordeste 49 Nordeste 0 -- -- 51
2019-04-20 23:00:00 15.7 22 Nordeste 45 Nordeste 0 -- -- 54
2019-04-20 22:00:00 14.7 21 Norte 42 Nordeste 0 -- -- 59
2019-04-20 21:00:00 15.3 19 Nordeste 37 Nordeste 0 -- -- 57
2019-04-20 20:00:00 15.4 19 Nordeste 49 Este 0.1 -- -- 58
2019-04-20 19:00:00 16.2 40 Este 50 Este 0 -- -- 57
2019-04-20 18:00:00 15.9 35 Este 54 Este 0 -- -- 62
2019-04-20 17:00:00 16.4 35 Este 51 Este 0 -- -- 59
2019-04-20 16:00:00 16.3 31 Este 41 Este 0 -- -- 63
2019-04-20 15:00:00 16.9 30 Este 43 Nordeste 0 -- -- 59
2019-04-20 14:00:00 16.3 37 Este 51 Este 0 -- -- 63
2019-04-20 13:00:00 16.6 41 Este 60 Este 0 -- -- 60
2019-04-20 12:00:00 16 41 Este 58 Este 0 -- -- 67
2019-04-20 11:00:00 16.3 37 Este 47 Este 0 -- -- 61
2019-04-20 10:00:00 16.8 37 Este 49 Nordeste 0 -- -- 54
2019-04-20 09:00:00 16.7 32 Nordeste 52 Este 0 -- -- 51
2019-04-20 08:00:00 16.4 35 Este 50 Nordeste 0 -- -- 51
2019-04-20 07:00:00 16.2 30 Este 46 Nordeste 0 -- -- 53
2019-04-20 06:00:00 15.9 32 Este 49 Este 0 -- -- 60
2019-04-20 05:00:00 16.5 26 Este 54 Este 0 -- -- 55
2019-04-20 04:00:00 16.3 35 Este 51 Este 0 -- -- 57
2019-04-20 03:00:00 16.2 36 Este 51 Nordeste 0 -- -- 59
2019-04-20 02:00:00 16.1 35 Este 50 Este 0 -- -- 60
2019-04-20 01:00:00 16.3 32 Este 48 Este 0 -- -- 59
2019-04-20 00:00:00 15.9 32 Este 57 Este 0 -- -- 61
2019-04-19 23:00:00 15.5 39 Este 51 Este 0 -- -- 69
2019-04-19 22:00:00 15.5 26 Este 41 Nordeste 0 -- -- 72
2019-04-19 21:00:00 15.7 30 Este 47 Este 0 -- -- 71
2019-04-19 20:00:00 15.5 41 Este 60 Este 0 -- -- 77
2019-04-19 19:00:00 15.3 49 Este 64 Este 0 -- -- 78
2019-04-19 18:00:00 15.5 51 Este 63 Este 0 -- -- 77
2019-04-19 17:00:00 15.9 53 Este 73 Este 0 -- -- 70
2019-04-19 16:00:00 16 51 Este 59 Este 0 -- -- 71
2019-04-19 15:00:00 16.6 46 Este 57 Este 0 -- -- 68
2019-04-19 14:00:00 16.1 47 Este 62 Este 0 -- -- 75
2019-04-19 13:00:00 15.9 49 Este 59 Este 0 -- -- 73
2019-04-19 12:00:00 17.2 37 Este 49 Este 0 -- -- 65
2019-04-19 11:00:00 16.7 33 Este 48 Este 0 -- -- 67
2019-04-19 10:00:00 15.3 36 Este 50 Este 0 -- -- 78
2019-04-19 09:00:00 14.8 40 Este 49 Este 0 -- -- 78
2019-04-19 08:00:00 15 40 Este 51 Este 0 -- -- 77
2019-04-19 07:00:00 15.2 37 Este 50 Este 0 -- -- 73
2019-04-19 06:00:00 15.2 35 Este 44 Este 0 -- -- 73
2019-04-19 05:00:00 15.2 40 Este 54 Este 0 -- -- 73
2019-04-19 04:00:00 15.1 39 Este 54 Este 0 -- -- 72
2019-04-19 03:00:00 15.2 35 Este 55 Este 0 -- -- 72
2019-04-19 02:00:00 15.3 42 Este 55 Este 0 -- -- 71
2019-04-19 01:00:00 15.1 39 Este 56 Este 0 -- -- 72
2019-04-19 00:00:00 15.4 41 Este 53 Este 0 -- -- 69
2019-04-18 23:00:00 15.4 41 Este 57 Este 0 -- -- 72
2019-04-18 22:00:00 15.3 41 Este 51 Este 0 -- -- 73
2019-04-18 21:00:00 14.9 38 Este 49 Este 0 -- -- 81
2019-04-18 20:00:00 14.9 43 Este 57 Este 0 -- -- 82
2019-04-18 19:00:00 15.4 46 Este 61 Este 0 -- -- 73
2019-04-18 18:00:00 15.5 46 Este 57 Este 0 -- -- 77
2019-04-18 17:00:00 15.3 43 Este 53 Este 0 -- -- 79
2019-04-18 16:00:00 15.2 44 Este 66 Este 0 -- -- 82
2019-04-18 15:00:00 15.3 42 Este 49 Este 0 -- -- 84
2019-04-18 14:00:00 15.1 40 Este 50 Este 0 -- -- 86
2019-04-18 13:00:00 15 35 Este 41 Este 0 -- -- 82
2019-04-18 12:00:00 14.9 35 Este 44 Este 0 -- -- 77
2019-04-18 11:00:00 14.4 35 Este 46 Este 0 -- -- 77
2019-04-18 10:00:00 14.5 31 Este 40 Este 0 -- -- 81
2019-04-18 09:00:00 13.8 32 Este 38 Este 0 -- -- 85
2019-04-18 08:00:00 13.6 30 Este 41 Este 0 -- -- 83
2019-04-18 07:00:00 13.2 24 Este 33 Este 0 -- -- 84
2019-04-18 06:00:00 13.1 17 Nordeste 33 Este 0 -- -- 92
2019-04-18 05:00:00 13.7 25 Este 30 Este 0 -- -- 90
2019-04-18 04:00:00 14 23 Este 33 Este 0 -- -- 89
2019-04-18 03:00:00 13.7 28 Este 33 Este 0 -- -- 92
2019-04-18 02:00:00 13.8 27 Este 30 Este 0 -- -- 92
2019-04-18 01:00:00 14.1 22 Este 26 Este 0 -- -- 92
2019-04-18 00:00:00 14.1 19 Este 23 Este 0 -- -- 90
2019-04-17 23:00:00 14.5 16 Este 19 Este 0 -- -- 89
2019-04-17 22:00:00 14.5 15 Este 18 Este 0 -- -- 90
2019-04-17 21:00:00 14.6 15 Este 20 Este 0 -- -- 90
2019-04-17 20:00:00 14.8 15 Este 18 Este 0 -- -- 86
2019-04-17 19:00:00 15.8 12 Este 15 Este 0 -- -- 80
2019-04-17 18:00:00 16.3 10 Este 14 Este 0 -- -- 74
2019-04-17 17:00:00 17.3 10 Sudeste 14 Este 0 -- -- 69
2019-04-17 16:00:00 17.2 10 Este 17 Este 0 -- -- 69
2019-04-17 15:00:00 16.5 8 Este 15 Este 0 -- -- 69
2019-04-17 14:00:00 16.9 6 Sudeste 13 Este 0 -- -- 68
2019-04-17 13:00:00 15.3 6 Este 14 Sudeste 0 -- -- 73
2019-04-17 12:00:00 14.9 11 Sudeste 16 Este 0 -- -- 76
2019-04-17 11:00:00 14.5 11 Sudeste 17 Sudeste 0 -- -- 79
2019-04-17 10:00:00 13.5 12 Sudeste 18 Sudeste 0 -- -- 87
2019-04-17 09:00:00 13 5 Este 10 Este 0 -- -- 88
2019-04-17 08:00:00 12 5 Norte 10 Norte 0 -- -- 86
2019-04-17 07:00:00 11.3 4 Norte 8 Nordeste 0 -- -- 91
2019-04-17 06:00:00 11.6 2 Norte 9 Norte 0 -- -- 91
2019-04-17 05:00:00 11.8 3 Nordeste 6 Nordeste 0 -- -- 91
2019-04-17 04:00:00 12.5 4 Norte 8 Este 0 -- -- 91
2019-04-17 03:00:00 13.1 6 Este 14 Este 0 -- -- 92
2019-04-17 02:00:00 13.2 10 Este 14 Este 0 -- -- 92
2019-04-17 01:00:00 13.4 11 Este 15 Este 0 -- -- 91
2019-04-17 00:00:00 13.4 11 Este 16 Este 0 -- -- 90
2019-04-16 23:00:00 13.6 8 Este 14 Este 0 -- -- 88
2019-04-16 22:00:00 13.7 9 Sudeste 14 Este 0 -- -- 88
2019-04-16 21:00:00 13.8 11 Este 19 Este 0 -- -- 88
2019-04-16 20:00:00 14 14 Sudeste 18 Sudeste 0 -- -- 87
2019-04-16 19:00:00 14.4 16 Sudeste 24 Sudeste 0 -- -- 85
2019-04-16 18:00:00 15.7 12 Sudeste 17 Sudeste 0 -- -- 82
2019-04-16 17:00:00 17.2 13 Sudeste 17 Este 0 -- -- 75
2019-04-16 16:00:00 17.3 14 Sudeste 18 Sudeste 0 -- -- 74
2019-04-16 15:00:00 17.2 15 Sudeste 20 Este 0 -- -- 74
2019-04-16 14:00:00 17 13 Sudeste 18 Sudeste 0 -- -- 76
2019-04-16 13:00:00 16.6 14 Este 19 Este 0 -- -- 78
2019-04-16 12:00:00 16.3 12 Este 16 Este 0 -- -- 78
2019-04-16 11:00:00 15.2 7 Este 17 Este 0 -- -- 81
2019-04-16 10:00:00 13.8 7 Norte 14 Norte 0 -- -- 74
2019-04-16 09:00:00 12.2 10 Norte 16 Norte 0.1 -- -- 75
2019-04-16 08:00:00 11.6 8 Norte 17 Norte 0 -- -- 73
2019-04-16 07:00:00 11.1 9 Norte 19 Norte 0 -- -- 73
2019-04-16 06:00:00 11.1 10 Norte 18 Nordeste 0 -- -- 71
2019-04-16 05:00:00 11.5 9 Norte 14 Norte 0 -- -- 67
2019-04-16 04:00:00 12.1 6 Norte 10 Norte 0 -- -- 64
2019-04-16 03:00:00 11.8 8 Norte 21 Norte 0 -- -- 63
2019-04-16 02:00:00 12 10 Norte 21 Norte 0.1 -- -- 64
2019-04-16 01:00:00 12.2 9 Norte 17 Norte 0 -- -- 64
2019-04-16 00:00:00 12.5 10 Nordeste 17 Este 0 -- -- 73
2019-04-15 23:00:00 12.7 13 Este 22 Este 0 -- -- 70
2019-04-15 22:00:00 12.9 15 Este 21 Este 0 -- -- 64
2019-04-15 21:00:00 13.3 12 Este 18 Sudeste 0 -- -- 60
2019-04-15 20:00:00 13.7 13 Sudeste 18 Este 0 -- -- 58
2019-04-15 19:00:00 14.2 12 Este 15 Este 0 -- -- 65
2019-04-15 18:00:00 15 10 Este 16 Sudeste 0 -- -- 61
2019-04-15 17:00:00 15.5 10 Sudeste 16 Sudeste 0 -- -- 60
2019-04-15 16:00:00 15.7 10 Sudeste 18 Sudeste 0 -- -- 61
2019-04-15 15:00:00 15.1 13 Sudeste 19 Sudeste 0 -- -- 61
2019-04-15 14:00:00 15.9 14 Sudeste 19 Sudeste 0 -- -- 57
2019-04-15 13:00:00 15.3 13 Sudeste 21 Sudeste 0 -- -- 61
2019-04-15 12:00:00 15 15 Sudeste 25 Este 0 -- -- 65
2019-04-15 11:00:00 13.9 18 Este 23 Este 0 -- -- 67
2019-04-15 10:00:00 13.3 15 Este 24 Este 0 -- -- 66
2019-04-15 09:00:00 12.9 19 Este 27 Este 0 -- -- 65
2019-04-15 08:00:00 12.2 19 Este 26 Este 0 -- -- 72
2019-04-15 07:00:00 12.5 20 Este 27 Este 0 -- -- 76
2019-04-15 06:00:00 11.9 9 Nordeste 17 Nordeste 0 -- -- 76
2019-04-15 05:00:00 11.6 8 Norte 13 Norte 0 -- -- 73
2019-04-15 04:00:00 12.4 8 Norte 13 Norte 0 -- -- 82
2019-04-15 03:00:00 12.2 6 Norte 12 Norte 0 -- -- 87
2019-04-15 02:00:00 12.7 8 Norte 13 Norte 0 -- -- 88
2019-04-15 01:00:00 12.8 5 Nordeste 12 Este 0 -- -- 85
2019-04-15 00:00:00 13 7 Este 13 Este 0 -- -- 85
2019-04-14 23:00:00 13.1 9 Este 12 Este 0 -- -- 84
2019-04-14 22:00:00 13 8 Este 11 Este 0 -- -- 84
2019-04-14 21:00:00 13.3 8 Este 14 Este 0 -- -- 80
2019-04-14 20:00:00 13.4 10 Este 15 Este 0 -- -- 77
2019-04-14 19:00:00 13.7 12 Este 18 Este 0 -- -- 76
2019-04-14 18:00:00 14.5 16 Este 22 Este 0 -- -- 74
2019-04-14 17:00:00 14.9 17 Este 24 Este 0 -- -- 73
2019-04-14 16:00:00 14.5 18 Este 26 Este 0 -- -- 75
2019-04-14 15:00:00 14.4 21 Este 27 Este 0 -- -- 77
2019-04-14 14:00:00 14.5 20 Este 26 Este 0 -- -- 80
2019-04-14 13:00:00 14.5 23 Este 26 Este 0 -- -- 83
2019-04-14 12:00:00 14.8 17 Este 19 Este 0 -- -- 82
2019-04-14 11:00:00 15.1 11 Este 18 Este 0 -- -- 73
2019-04-14 10:00:00 12.7 6 Norte 15 Norte 0 -- -- 69
2019-04-14 09:00:00 11.5 9 Norte 19 Norte 0 -- -- 71
2019-04-14 08:00:00 10.9 11 Norte 18 Norte 0 -- -- 71
2019-04-14 07:00:00 10.1 10 Norte 19 Norte 0 -- -- 76
2019-04-14 06:00:00 10.8 9 Norte 14 Norte 0 -- -- 75
2019-04-14 05:00:00 11 9 Norte 13 Norte 0 -- -- 80
2019-04-14 04:00:00 11.4 6 Norte 9 Norte 0 -- -- 80
2019-04-14 03:00:00 12 5 Norte 8 Norte 0 -- -- 78
2019-04-14 02:00:00 12.6 0 Calma 10 Oeste 0 -- -- 78
2019-04-14 01:00:00 13.4 6 Oeste 14 Oeste 0 -- -- 79
2019-04-14 00:00:00 13.4 0 Calma 7 Nordeste 0 -- -- 80
2019-04-13 23:00:00 14.4 3 Noroeste 12 Sudoeste 0 -- -- 69
2019-04-13 22:00:00 14.4 10 Oeste 17 Oeste 0 -- -- 69
2019-04-13 21:00:00 14.5 8 Oeste 19 Sudoeste 0 -- -- 69
2019-04-13 20:00:00 14.3 13 Sudoeste 22 Sur 0 -- -- 80
2019-04-13 19:00:00 15.1 14 Sur 19 Sudoeste 0 -- -- 68
2019-04-13 18:00:00 15.6 13 Sur 21 Sur 0 -- -- 66
2019-04-13 17:00:00 15.2 18 Sur 25 Sudoeste 0 -- -- 71
2019-04-13 16:00:00 15.5 16 Sur 20 Sudoeste 0 -- -- 70
2019-04-13 15:00:00 15.5 14 Sur 18 Sur 0 -- -- 71
2019-04-13 14:00:00 16.5 10 Sur 17 Sudeste 0 -- -- 65
2019-04-13 13:00:00 16.7 11 Sudeste 16 Sudeste 0 -- -- 66
2019-04-13 12:00:00 15.9 12 Sudeste 17 Sur 0 -- -- 65
2019-04-13 11:00:00 15.2 5 Sudoeste 18 Sur 0 -- -- 59
2019-04-13 10:00:00 15 6 Nordeste 11 Norte 0 -- -- 61
2019-04-13 09:00:00 13 7 Norte 15 Norte 0 -- -- 72
2019-04-13 08:00:00 11.2 7 Norte 12 Norte 0 -- -- 80
2019-04-13 07:00:00 10.9 6 Norte 12 Norte 0 -- -- 83
2019-04-13 06:00:00 11.4 5 Norte 8 Norte 0 -- -- 85
2019-04-13 05:00:00 11.8 6 Norte 10 Norte 0 -- -- 84
2019-04-13 04:00:00 12.1 6 Norte 11 Oeste 0 -- -- 85
2019-04-13 03:00:00 13 4 Oeste 13 Sudoeste 0 -- -- 88
2019-04-13 02:00:00 13.2 7 Sudoeste 10 Sur 0 -- -- 88
2019-04-13 01:00:00 13.3 8 Sur 11 Sur 0 -- -- 87
2019-04-13 00:00:00 13.4 9 Sur 15 Sur 0 -- -- 85
2019-04-12 23:00:00 13.5 13 Sur 20 Sudoeste 0 -- -- 82
2019-04-12 22:00:00 13.5 15 Sudoeste 24 Sudoeste 0 -- -- 81
2019-04-12 21:00:00 13.8 12 Sur 21 Sur 0 -- -- 73
2019-04-12 20:00:00 13.8 16 Sur 21 Sur 0 -- -- 82
2019-04-12 19:00:00 14.9 14 Sur 26 Sudeste 0 -- -- 77
2019-04-12 18:00:00 15 22 Sudeste 28 Sudeste 0 -- -- 73
2019-04-12 17:00:00 15.3 23 Sudeste 28 Sudeste 0 -- -- 70
2019-04-12 16:00:00 16 15 Sur 22 Sur 0 -- -- 60
2019-04-12 15:00:00 15.8 15 Sur 22 Sur 0 -- -- 57
2019-04-12 14:00:00 15.7 14 Sur 22 Sur 0 -- -- 60
2019-04-12 13:00:00 15.5 19 Sudeste 27 Sudeste 0 -- -- 68
2019-04-12 12:00:00 15.9 22 Sudeste 24 Sudeste 0 -- -- 59
2019-04-12 11:00:00 16.7 9 Sur 14 Sur 0 -- -- 49
2019-04-12 10:00:00 15.4 7 Nordeste 14 Nordeste 0 -- -- 49
2019-04-12 09:00:00 14.8 3 Norte 12 Norte 0 -- -- 52
2019-04-12 08:00:00 12.9 6 Norte 18 Nordeste 0 -- -- 56
2019-04-12 07:00:00 12.8 2 Norte 17 Noroeste 0 -- -- 54
2019-04-12 06:00:00 13.7 5 Noroeste 17 Noroeste 0 -- -- 52
2019-04-12 05:00:00 13.4 2 Este 9 Oeste 0 -- -- 62
2019-04-12 04:00:00 13.9 4 Noroeste 10 Norte 0 -- -- 58
2019-04-12 03:00:00 14.3 5 Noroeste 12 Norte 0 -- -- 57
2019-04-12 02:00:00 14.3 7 Norte 15 Norte 0 -- -- 58
2019-04-12 01:00:00 13.9 7 Nordeste 15 Norte 0 -- -- 70
2019-04-12 00:00:00 14.1 3 Norte 7 Norte 0 -- -- 70
2019-04-11 23:00:00 13.5 0 Calma 14 Sudoeste 0 -- -- 80
2019-04-11 22:00:00 13.8 13 Este 18 Este 0 -- -- 81
2019-04-11 21:00:00 14 16 Este 19 Este 0 -- -- 78
2019-04-11 20:00:00 14.4 8 Este 15 Este 0 -- -- 75
2019-04-11 19:00:00 14.5 8 Este 19 Este 0 -- -- 71
2019-04-11 18:00:00 15.5 9 Sudeste 23 Este 0 -- -- 68
2019-04-11 17:00:00 16.9 6 Sudeste 16 Sur 0 -- -- 58
2019-04-11 16:00:00 16.6 10 Sudoeste 16 Sudeste 0 -- -- 63
2019-04-11 15:00:00 17 10 Sur 16 Sudeste 0 -- -- 62
2019-04-11 14:00:00 17.1 11 Sudeste 27 Este 0 -- -- 64
2019-04-11 13:00:00 16.3 26 Este 28 Este 0 -- -- 58
2019-04-11 12:00:00 17.2 7 Norte 18 Norte 0 -- -- 39
2019-04-11 11:00:00 15.8 6 Norte 17 Norte 0 -- -- 43
2019-04-11 10:00:00 13.4 3 Noroeste 13 Nordeste 0 -- -- 51
2019-04-11 09:00:00 12.4 5 Este 28 Noroeste 0 -- -- 55
2019-04-11 08:00:00 11.9 13 Noroeste 26 Noroeste 0 -- -- 57
2019-04-11 07:00:00 12.3 17 Noroeste 29 Noroeste 0 -- -- 55
2019-04-11 06:00:00 12.8 4 Noroeste 19 Oeste 0 -- -- 56
2019-04-11 05:00:00 12.3 0 Calma 13 Noroeste 0 -- -- 69
2019-04-11 04:00:00 12.1 6 Norte 12 Oeste 0 -- -- 72
2019-04-11 03:00:00 12.1 2 Oeste 12 Norte 0 -- -- 72
2019-04-11 02:00:00 12.1 5 Norte 11 Norte 0 -- -- 73
2019-04-11 01:00:00 12.6 4 Norte 12 Oeste 0 -- -- 69
2019-04-11 00:00:00 13 8 Oeste 12 Oeste 0 -- -- 67
2019-04-10 23:00:00 12.9 4 Norte 13 Este 0 -- -- 69
2019-04-10 22:00:00 13.9 4 Noroeste 18 Oeste 0 -- -- 60
2019-04-10 21:00:00 14.4 4 Noroeste 12 Oeste 0 -- -- 59
2019-04-10 20:00:00 14.4 5 Oeste 14 Sudoeste 0 -- -- 59
2019-04-10 19:00:00 14.1 9 Sudoeste 14 Sudoeste 0 -- -- 61
2019-04-10 18:00:00 13.7 13 Sudeste 21 Sur 0.4 -- -- 73
2019-04-10 17:00:00 12.9 15 Sur 67 Este 2.4 -- -- 85
2019-04-10 16:00:00 13.9 21 Sur 30 Sudoeste 0 -- -- 79
2019-04-10 15:00:00 14.6 23 Sudoeste 35 Sudoeste 0 -- -- 69
2019-04-10 14:00:00 14.5 26 Sudoeste 32 Sudoeste 0 -- -- 74
2019-04-10 13:00:00 16.7 10 Sur 14 Sur 0 -- -- 57
2019-04-10 12:00:00 16.2 10 Sudoeste 14 Noroeste 0 -- -- 56
2019-04-10 11:00:00 14.3 7 Noroeste 24 Noroeste 0 -- -- 60
2019-04-10 10:00:00 14 6 Norte 12 Noroeste 0 -- -- 60
2019-04-10 09:00:00 12.2 5 Norte 19 Noroeste 0 -- -- 67
2019-04-10 08:00:00 11.2 10 Noroeste 26 Noroeste 0 -- -- 70
2019-04-10 07:00:00 11 12 Norte 23 Norte 0 -- -- 71
2019-04-10 06:00:00 11.3 6 Noroeste 13 Norte 0 -- -- 72
2019-04-10 05:00:00 11.1 2 Sudeste 16 Noroeste 0 -- -- 75
2019-04-10 04:00:00 11.8 4 Noroeste 15 Noroeste 0 -- -- 68
2019-04-10 03:00:00 11.3 4 Noroeste 9 Norte 0 -- -- 73
2019-04-10 02:00:00 10.8 0 Calma 8 Norte 0 -- -- 81
2019-04-10 01:00:00 10.9 3 Norte 6 Nordeste 0 -- -- 80
2019-04-10 00:00:00 11.1 5 Norte 17 Norte 0 -- -- 76
2019-04-09 23:00:00 11.3 10 Norte 19 Noroeste 0 -- -- 77
2019-04-09 22:00:00 10.9 10 Norte 20 Norte 0 -- -- 81
2019-04-09 21:00:00 11.1 5 Norte 13 Sudoeste 0 -- -- 86
2019-04-09 20:00:00 11 5 Sudoeste 16 Oeste 0.6 -- -- 86
2019-04-09 19:00:00 11 6 Noroeste 31 Este 1.6 -- -- 84
2019-04-09 18:00:00 13.8 12 Este 16 Este 0 -- -- 81
2019-04-09 17:00:00 13.7 12 Sudeste 19 Sudeste 0.7 -- -- 85
2019-04-09 16:00:00 15.1 17 Sudeste 24 Sudeste 0 -- -- 77
2019-04-09 15:00:00 14.5 15 Sudeste 27 Sudeste 0 -- -- 79
2019-04-09 14:00:00 15.2 19 Sudeste 24 Sudeste 0 -- -- 75
2019-04-09 13:00:00 14.9 14 Sudeste 24 Sudeste 0 -- -- 76
2019-04-09 12:00:00 13.4 17 Este 22 Este 0 -- -- 84
2019-04-09 11:00:00 14.1 17 Este 20 Este 0 -- -- 82
2019-04-09 10:00:00 13.7 17 Este 22 Este 0 -- -- 79
2019-04-09 09:00:00 12.9 3 Nordeste 12 Norte 0 -- -- 77
2019-04-09 08:00:00 12.1 8 Norte 14 Norte 0 -- -- 78
2019-04-09 07:00:00 12.1 7 Norte 11 Norte 0 -- -- 88
2019-04-09 06:00:00 12.1 8 Norte 15 Norte 0.4 -- -- 89
2019-04-09 05:00:00 12.7 6 Norte 10 Norte 0 -- -- 88
2019-04-09 04:00:00 12.5 8 Norte 14 Nordeste 0 -- -- 89
2019-04-09 03:00:00 12.6 7 Nordeste 14 Nordeste 0 -- -- 88
2019-04-09 02:00:00 12.9 9 Nordeste 15 Nordeste 0 -- -- 87
2019-04-09 01:00:00 13.5 3 Nordeste 13 Este 0 -- -- 89
2019-04-09 00:00:00 13.6 3 Nordeste 15 Sudoeste 0 -- -- 87
2019-04-08 23:00:00 14.4 5 Oeste 14 Sudoeste 0 -- -- 83
2019-04-08 22:00:00 14.5 8 Sudoeste 17 Sudoeste 0 -- -- 79
2019-04-08 21:00:00 15.6 5 Sudoeste 31 Sudoeste 0 -- -- 64
2019-04-08 20:00:00 16.6 20 Oeste 39 Oeste 0 -- -- 54
2019-04-08 19:00:00 16.2 19 Sudoeste 35 Sudoeste 0 -- -- 61
2019-04-08 18:00:00 14.8 26 Sudoeste 41 Sudoeste 0 -- -- 81
2019-04-08 17:00:00 14.7 27 Sudoeste 36 Sudoeste 0 -- -- 81
2019-04-08 16:00:00 14.6 27 Sudoeste 37 Sudoeste 0 -- -- 80
2019-04-08 15:00:00 14.6 27 Sur 33 Sur 0 -- -- 74
2019-04-08 14:00:00 14.6 23 Sur 30 Sur 0 -- -- 70
2019-04-08 13:00:00 14.2 22 Sur 28 Sur 0 -- -- 73
2019-04-08 12:00:00 14.3 19 Sudoeste 26 Sudoeste 0 -- -- 73
2019-04-08 11:00:00 14.7 14 Oeste 22 Oeste 0 -- -- 53
2019-04-08 10:00:00 12.9 0 Calma 9 Sudeste 0 -- -- 74
2019-04-08 09:00:00 11.1 0 Calma 6 Norte 0 -- -- 75
2019-04-08 08:00:00 8.8 6 Norte 11 Norte 0 -- -- 85
2019-04-08 07:00:00 8.8 5 Noroeste 10 Noroeste 0 -- -- 86
2019-04-08 06:00:00 8.8 7 Norte 12 Norte 0 -- -- 84
2019-04-08 05:00:00 9.6 8 Norte 11 Norte 0 -- -- 83
2019-04-08 04:00:00 9.9 7 Norte 11 Norte 0 -- -- 84
2019-04-08 03:00:00 10.5 5 Norte 8 Oeste 0 -- -- 84
2019-04-08 02:00:00 10.8 2 Noroeste 8 Oeste 0 -- -- 84
2019-04-08 01:00:00 11.5 6 Oeste 10 Oeste 0 -- -- 80
2019-04-08 00:00:00 11.7 5 Oeste 17 Oeste 0 -- -- 77
2019-04-07 23:00:00 11.6 7 Oeste 15 Oeste 0 -- -- 80
2019-04-07 22:00:00 11.1 3 Noroeste 9 Norte 0 -- -- 80
2019-04-07 21:00:00 11.4 4 Nordeste 10 Norte 0 -- -- 80
2019-04-07 20:00:00 11.9 3 Sudoeste 20 Noroeste 0 -- -- 80
2019-04-07 19:00:00 12 8 Oeste 31 Sur 0.1 -- -- 73
2019-04-07 18:00:00 11.4 18 Sur 26 Sudoeste 1.8 -- -- 74
2019-04-07 17:00:00 13.1 18 Este 23 Sudeste 0.1 -- -- 67
2019-04-07 16:00:00 14.4 9 Sur 21 Sur 0 -- -- 61
2019-04-07 15:00:00 15.4 15 Sur 22 Sudeste 0 -- -- 56
2019-04-07 14:00:00 15.5 17 Sudeste 20 Este 0 -- -- 56
2019-04-07 13:00:00 14.2 22 Este 28 Este 0 -- -- 58
2019-04-07 12:00:00 15.1 6 Noroeste 22 Norte 0 -- -- 50
2019-04-07 11:00:00 13.5 7 Noroeste 30 Noroeste 0 -- -- 56
2019-04-07 10:00:00 12.3 13 Noroeste 27 Norte 0 -- -- 58
2019-04-07 09:00:00 11.3 7 Noroeste 21 Noroeste 0 -- -- 60
2019-04-07 08:00:00 10.5 0 Calma 18 Noroeste 0 -- -- 61
2019-04-07 07:00:00 10.8 8 Noroeste 24 Noroeste 0 -- -- 60
2019-04-07 06:00:00 10.6 5 Noroeste 22 Norte 0 -- -- 60
2019-04-07 05:00:00 10.7 5 Noroeste 19 Norte 0 -- -- 61
2019-04-07 04:00:00 10.4 3 Noroeste 19 Norte 0 -- -- 64
2019-04-07 03:00:00 10.7 7 Noroeste 22 Noroeste 0 -- -- 65
2019-04-07 02:00:00 10.6 9 Norte 18 Norte 0 -- -- 67
2019-04-07 01:00:00 11 7 Norte 14 Norte 0 -- -- 68
2019-04-07 00:00:00 11.7 5 Norte 10 Norte 0 -- -- 66
2019-04-06 23:00:00 12.3 4 Nordeste 9 Nordeste 0 -- -- 70
2019-04-06 22:00:00 12.6 2 Sudoeste 18 Oeste 0 -- -- 67
2019-04-06 21:00:00 12.9 8 Sudoeste 26 Sudoeste 0 -- -- 58
2019-04-06 20:00:00 13.3 17 Sudoeste 36 Oeste 0 -- -- 58
2019-04-06 19:00:00 13.6 16 Sudoeste 43 Sudoeste 0 -- -- 58
2019-04-06 18:00:00 13.7 28 Sudoeste 42 Sudoeste 0 -- -- 54
2019-04-06 17:00:00 14.3 30 Sudoeste 38 Sudoeste 0 -- -- 51
2019-04-06 16:00:00 14.5 14 Sudoeste 31 Sudoeste 0 -- -- 46
2019-04-06 15:00:00 15.5 13 Oeste 37 Sudoeste 0 -- -- 39
2019-04-06 14:00:00 15.5 14 Oeste 35 Noroeste 0 -- -- 42
2019-04-06 13:00:00 15.2 11 Oeste 37 Oeste 0 -- -- 44
2019-04-06 12:00:00 13.6 19 Oeste 44 Oeste 0 -- -- 50
2019-04-06 11:00:00 12.5 24 Oeste 44 Oeste 0 -- -- 54
2019-04-06 10:00:00 11.1 14 Oeste 25 Oeste 0 -- -- 62
2019-04-06 09:00:00 9.7 14 Oeste 31 Oeste 0 -- -- 70
2019-04-06 08:00:00 9 11 Oeste 28 Oeste 0 -- -- 72
2019-04-06 07:00:00 8.9 5 Noroeste 18 Noroeste 0 -- -- 81
2019-04-06 06:00:00 9.7 11 Noroeste 30 Noroeste 0.1 -- -- 75
2019-04-06 05:00:00 10.7 2 Noroeste 12 Noroeste 0 -- -- 82
2019-04-06 04:00:00 10.7 7 Oeste 19 Oeste 1 -- -- 86
2019-04-06 03:00:00 10.9 9 Oeste 17 Oeste 0 -- -- 86
2019-04-06 02:00:00 11.1 8 Oeste 17 Oeste 0.5 -- -- 86
2019-04-06 01:00:00 11.3 3 Norte 13 Oeste 0 -- -- 89
2019-04-06 00:00:00 11.2 6 Oeste 34 Oeste 1 -- -- 92
2019-04-05 23:00:00 13.3 26 Sudeste 37 Sudeste 0.1 -- -- 83
2019-04-05 22:00:00 13 23 Sudeste 35 Sudeste 0.8 -- -- 87
2019-04-05 21:00:00 12.6 24 Sur 41 Sur 0.1 -- -- 91
2019-04-05 20:00:00 13.8 18 Sur 31 Sur 0 -- -- 91
2019-04-05 19:00:00 13.8 18 Sur 29 Sudoeste 0 -- -- 89
2019-04-05 18:00:00 14.1 21 Sudoeste 35 Sudoeste 0 -- -- 86
2019-04-05 17:00:00 14 27 Sudoeste 39 Sudoeste 0 -- -- 84
2019-04-05 16:00:00 14.3 27 Sudoeste 43 Sudoeste 0 -- -- 81
2019-04-05 15:00:00 13.9 29 Sudoeste 42 Sudoeste 0 -- -- 83
2019-04-05 14:00:00 14.4 29 Sudoeste 43 Sudoeste 0 -- -- 80
2019-04-05 13:00:00 14 28 Sudoeste 37 Sudoeste 0 -- -- 79
2019-04-05 12:00:00 13.4 5 Sur 18 Oeste 0 -- -- 72
2019-04-05 11:00:00 12.4 5 Sudeste 8 Sudeste 0 -- -- 68
2019-04-05 10:00:00 11.6 2 Este 8 Este 0 -- -- 66
2019-04-05 09:00:00 10.5 3 Norte 12 Norte 0 -- -- 66
2019-04-05 08:00:00 8.1 9 Norte 13 Norte 0 -- -- 74
2019-04-05 07:00:00 7.8 8 Norte 15 Norte 0 -- -- 76
2019-04-05 06:00:00 7.3 10 Norte 14 Norte 0 -- -- 76
2019-04-05 05:00:00 7.7 6 Norte 9 Norte 0 -- -- 74
2019-04-05 04:00:00 7.9 6 Norte 9 Norte 0 -- -- 72
2019-04-05 03:00:00 8.5 3 Norte 9 Norte 0 -- -- 69
2019-04-05 02:00:00 9.5 6 Norte 9 Norte 0 -- -- 65
2019-04-05 01:00:00 9.9 4 Noroeste 9 Norte 0 -- -- 64
2019-04-05 00:00:00 10.1 5 Norte 10 Noroeste 0 -- -- 64
2019-04-04 23:00:00 10.5 6 Norte 19 Norte 0 -- -- 64
2019-04-04 22:00:00 11 13 Norte 23 Este 0 -- -- 64
2019-04-04 21:00:00 12.1 18 Este 23 Este 0 -- -- 64
2019-04-04 20:00:00 12.5 16 Sudeste 22 Sudeste 0 -- -- 56
2019-04-04 19:00:00 13.2 12 Sudeste 25 Sudeste 0 -- -- 53
2019-04-04 18:00:00 12.9 15 Sur 29 Sudeste 0 -- -- 51
2019-04-04 17:00:00 13 19 Sur 27 Sur 0 -- -- 48
2019-04-04 16:00:00 12.7 15 Sur 22 Sudeste 0 -- -- 48
2019-04-04 15:00:00 12.5 13 Sur 25 Sur 0 -- -- 50
2019-04-04 14:00:00 11.2 22 Sudoeste 28 Sudoeste 0 -- -- 53
2019-04-04 13:00:00 13.8 6 Noroeste 23 Noroeste 0 -- -- 37
2019-04-04 12:00:00 11.4 13 Noroeste 28 Noroeste 0 -- -- 45
2019-04-04 11:00:00 9.5 13 Noroeste 34 Noroeste 0 -- -- 49
2019-04-04 10:00:00 7.8 12 Noroeste 27 Noroeste 0 -- -- 52
2019-04-04 09:00:00 7.6 14 Noroeste 25 Norte 0 -- -- 51
2019-04-04 08:00:00 7.1 14 Noroeste 27 Noroeste 0 -- -- 50
2019-04-04 07:00:00 7.5 12 Noroeste 22 Noroeste 0 -- -- 50
2019-04-04 06:00:00 7.6 9 Noroeste 20 Norte 0 -- -- 55
2019-04-04 05:00:00 8.3 6 Norte 15 Nordeste 0 -- -- 72
2019-04-04 04:00:00 8.5 8 Nordeste 23 Este 0 -- -- 83
2019-04-04 03:00:00 9.1 16 Este 26 Este 0 -- -- 84
2019-04-04 02:00:00 8.9 15 Este 29 Este 0 -- -- 86
2019-04-04 01:00:00 9.3 21 Este 30 Este 0 -- -- 89
2019-04-04 00:00:00 9.3 27 Este 33 Este 0 -- -- 90
2019-04-03 23:00:00 10.2 6 Sudoeste 10 Sudoeste 0.1 -- -- 77
2019-04-03 22:00:00 10.6 4 Norte 14 Norte 0.3 -- -- 76
2019-04-03 21:00:00 10.7 3 Norte 24 Norte 1.1 -- -- 75
2019-04-03 20:00:00 12.2 4 Noroeste 29 Noroeste 0.3 -- -- 66
2019-04-03 19:00:00 12.9 13 Norte 37 Noroeste 0 -- -- 60
2019-04-03 18:00:00 15.1 14 Noroeste 27 Noroeste 0 -- -- 49
2019-04-03 17:00:00 14.1 14 Sur 21 Sudoeste 0 -- -- 88
2019-04-03 16:00:00 14.4 15 Sudoeste 26 Sudoeste 0 -- -- 85
2019-04-03 15:00:00 16.1 17 Sudoeste 32 Sudoeste 0 -- -- 78
2019-04-03 14:00:00 15.2 22 Sudoeste 31 Sudoeste 0 -- -- 77
2019-04-03 13:00:00 14.4 20 Sudoeste 28 Sudoeste 0 -- -- 87
2019-04-03 12:00:00 14.7 21 Sudoeste 29 Sudoeste 0 -- -- 84
2019-04-03 11:00:00 15.1 18 Sudoeste 25 Sudoeste 0 -- -- 78
2019-04-03 10:00:00 14.5 9 Sur 13 Sur 0 -- -- 91
2019-04-03 09:00:00 13.5 8 Sur 11 Sur 0 -- -- 93
2019-04-03 08:00:00 13.1 7 Este 10 Este 0 -- -- 93
2019-04-03 07:00:00 12.9 8 Este 14 Este 0 -- -- 92
2019-04-03 06:00:00 12.8 9 Este 15 Este 0 -- -- 92
2019-04-03 05:00:00 12.8 10 Este 14 Este 0 -- -- 92
2019-04-03 04:00:00 12.9 12 Este 17 Este 0 -- -- 92
2019-04-03 03:00:00 12.7 14 Este 21 Este 0 -- -- 92
2019-04-03 02:00:00 12.9 18 Este 28 Este 0.5 -- -- 93
2019-04-03 01:00:00 13 22 Este 27 Este 0.7 -- -- 94
2019-04-03 00:00:00 13.3 22 Este 26 Este 0 -- -- 92
2019-04-02 23:00:00 13.5 23 Este 30 Este 0 -- -- 89
2019-04-02 22:00:00 13.7 24 Este 31 Este 0 -- -- 94
2019-04-02 21:00:00 14.1 10 Sur 20 Sudoeste 0 -- -- 94
2019-04-02 20:00:00 14.3 15 Sudoeste 25 Sur 0 -- -- 88
2019-04-02 19:00:00 14.7 16 Sudoeste 35 Sudoeste 0 -- -- 84
2019-04-02 18:00:00 14.3 32 Sudoeste 39 Sudoeste 0 -- -- 88
2019-04-02 17:00:00 15.9 22 Sudoeste 38 Sudoeste 0 -- -- 80
2019-04-02 16:00:00 15.4 22 Sudoeste 37 Sudoeste 0 -- -- 83
2019-04-02 15:00:00 15.8 26 Sudoeste 36 Sudoeste 0 -- -- 81
2019-04-02 14:00:00 15.9 23 Sudoeste 36 Sudoeste 0 -- -- 78
2019-04-02 13:00:00 15.1 24 Sudoeste 31 Sudoeste 0 -- -- 84
2019-04-02 12:00:00 15 22 Sudoeste 30 Sudoeste 0 -- -- 83
2019-04-02 11:00:00 15.3 15 Sudoeste 20 Sudoeste 0 -- -- 73
2019-04-02 10:00:00 13.8 10 Oeste 18 Oeste 0 -- -- 65
2019-04-02 09:00:00 13.1 9 Oeste 14 Oeste 0 -- -- 67
2019-04-02 08:00:00 12.4 4 Sudoeste 9 Sudoeste 0 -- -- 69
2019-04-02 07:00:00 12.2 0 Calma 8 Oeste 0 -- -- 71
2019-04-02 06:00:00 11.5 0 Calma 3 Norte 0 -- -- 75
2019-04-02 05:00:00 11.7 0 Calma 3 Sur 0 -- -- 74
2019-04-02 04:00:00 11.9 3 Nordeste 5 Sudoeste 0 -- -- 72
2019-04-02 03:00:00 12.5 2 Oeste 12 Oeste 0 -- -- 74
2019-04-02 02:00:00 12.5 6 Oeste 17 Oeste 0 -- -- 82
2019-04-02 01:00:00 12.6 8 Oeste 15 Oeste 0 -- -- 84
2019-04-02 00:00:00 12.9 8 Oeste 15 Oeste 0 -- -- 79
2019-04-01 23:00:00 13.2 9 Sudoeste 14 Oeste 0 -- -- 76
2019-04-01 22:00:00 13.3 9 Sudoeste 14 Sudoeste 0 -- -- 72
2019-04-01 21:00:00 13.4 8 Sudoeste 19 Sudoeste 0 -- -- 75
2019-04-01 20:00:00 13.5 15 Sur 21 Sudoeste 0 -- -- 68
2019-04-01 19:00:00 14 14 Sur 17 Sur 0 -- -- 71
2019-04-01 18:00:00 15.2 12 Sur 17 Sur 0 -- -- 70
2019-04-01 17:00:00 15 13 Sur 19 Sudeste 0 -- -- 69
2019-04-01 16:00:00 15.8 14 Sudeste 22 Sudeste 0 -- -- 72
2019-04-01 15:00:00 16.2 12 Sur 19 Sudeste 0 -- -- 66
2019-04-01 14:00:00 16.3 13 Sudeste 17 Sudeste 0 -- -- 65
2019-04-01 13:00:00 15.9 13 Sudeste 15 Sudeste 0 -- -- 62
2019-04-01 12:00:00 16 8 Este 14 Este 0 -- -- 64
2019-04-01 11:00:00 15.3 9 Este 13 Este 0 -- -- 65
2019-04-01 10:00:00 14.5 6 Este 14 Este 0 -- -- 61
2019-04-01 09:00:00 12.6 5 Norte 9 Norte 0 -- -- 60
2019-04-01 08:00:00 11.7 5 Norte 13 Norte 0 -- -- 65
2019-04-01 07:00:00 11.6 7 Norte 12 Norte 0 -- -- 65
2019-04-01 06:00:00 11.9 6 Norte 13 Norte 0 -- -- 64
2019-04-01 05:00:00 12.3 5 Norte 9 Nordeste 0 -- -- 64
2019-04-01 04:00:00 12.5 5 Norte 9 Nordeste 0 -- -- 64
2019-04-01 03:00:00 12.7 6 Nordeste 11 Nordeste 0 -- -- 64
2019-04-01 02:00:00 13 7 Nordeste 20 Este 0 -- -- 72
2019-04-01 01:00:00 13.3 17 Este 23 Este 0 -- -- 79
2019-04-01 00:00:00 13 20 Este 27 Este 0 -- -- 85
2019-03-31 23:00:00 12.9 23 Este 28 Este 0 -- -- 88
2019-03-31 22:00:00 13.1 23 Este 28 Este 0 -- -- 85
2019-03-31 21:00:00 13 25 Este 32 Este 0 -- -- 86
2019-03-31 20:00:00 12.9 29 Este 36 Este 0 -- -- 91
2019-03-31 19:00:00 13.1 32 Este 39 Este 0 -- -- 91
2019-03-31 18:00:00 13.4 34 Este 38 Este 0 -- -- 87
2019-03-31 17:00:00 13.3 34 Este 40 Este 0 -- -- 85
2019-03-31 16:00:00 13.9 31 Este 36 Este 0 -- -- 80
2019-03-31 15:00:00 14.3 30 Este 35 Este 0 -- -- 78
2019-03-31 14:00:00 14.1 30 Este 36 Este 0 -- -- 78
2019-03-31 13:00:00 13.6 31 Este 36 Este 0 -- -- 80
2019-03-31 12:00:00 13.2 30 Este 38 Este 0 -- -- 82
2019-03-31 11:00:00 13 27 Este 35 Este 0 -- -- 86
2019-03-31 10:00:00 12.6 26 Este 32 Este 0 -- -- 90
2019-03-31 09:00:00 11.4 10 Nordeste 20 Nordeste 0 -- -- 85
2019-03-31 08:00:00 10.6 9 Norte 18 Norte 0 -- -- 80
2019-03-31 07:00:00 10.1 13 Norte 19 Norte 0 -- -- 79
2019-03-31 06:00:00 10.7 10 Norte 16 Norte 0 -- -- 78
2019-03-31 05:00:00 11 6 Norte 13 Norte 0 -- -- 77
2019-03-31 03:00:00 10.8 7 Norte 16 Norte 0 -- -- 83
2019-03-31 01:00:00 11.3 8 Norte 15 Norte 0 -- -- 83
2019-03-31 00:00:00 12 7 Nordeste 13 Este 0 -- -- 81
2019-03-30 23:00:00 12.6 8 Este 15 Este 0 -- -- 83
2019-03-30 22:00:00 12.5 11 Este 17 Este 0 -- -- 80
2019-03-30 21:00:00 12.6 13 Sudeste 23 Este 0 -- -- 78
2019-03-30 20:00:00 12.7 17 Este 25 Este 0 -- -- 78
2019-03-30 19:00:00 13 20 Este 23 Este 0 -- -- 77
2019-03-30 18:00:00 14.3 21 Sudeste 24 Sudeste 0 -- -- 70
2019-03-30 17:00:00 14.9 19 Sudeste 24 Sudeste 0 -- -- 71
2019-03-30 16:00:00 15.5 19 Sudeste 22 Sudeste 0 -- -- 66
2019-03-30 15:00:00 16 14 Sudeste 21 Sudeste 0 -- -- 64
2019-03-30 14:00:00 15.8 17 Sudeste 23 Este 0 -- -- 67
2019-03-30 13:00:00 15.1 15 Este 19 Este 0 -- -- 71
2019-03-30 12:00:00 14.7 15 Este 21 Este 0 -- -- 72
2019-03-30 11:00:00 14.2 14 Este 23 Este 0 -- -- 67
2019-03-30 10:00:00 13.7 7 Nordeste 16 Norte 0 -- -- 62
2019-03-30 09:00:00 11.8 8 Norte 18 Norte 0 -- -- 63
2019-03-30 08:00:00 9.7 9 Norte 17 Norte 0 -- -- 69
2019-03-30 07:00:00 8.8 9 Norte 19 Noroeste 0 -- -- 71
2019-03-30 06:00:00 9 8 Norte 17 Norte 0 -- -- 68
2019-03-30 05:00:00 9.1 10 Norte 17 Norte 0 -- -- 67
2019-03-30 04:00:00 9.5 9 Norte 15 Norte 0 -- -- 64
2019-03-30 03:00:00 9.9 8 Norte 14 Norte 0 -- -- 63
2019-03-30 02:00:00 10.3 8 Norte 13 Norte 0 -- -- 67
2019-03-30 01:00:00 10.9 5 Norte 11 Norte 0 -- -- 69
2019-03-30 00:00:00 11.2 6 Norte 12 Este 0 -- -- 71
2019-03-29 23:00:00 12.4 14 Este 20 Este 0 -- -- 73
2019-03-29 22:00:00 12.4 12 Este 18 Sudeste 0 -- -- 73
2019-03-29 21:00:00 12.7 15 Este 54 Este 0 -- -- 70
2019-03-29 20:00:00 12.8 17 Este 24 Sudeste 0 -- -- 69
2019-03-29 19:00:00 13.6 22 Este 27 Este 0 -- -- 66
2019-03-29 18:00:00 14.5 18 Este 22 Este 0 -- -- 64
2019-03-29 17:00:00 15.3 16 Sudeste 20 Sudeste 0 -- -- 64
2019-03-29 16:00:00 15.8 16 Sudeste 19 Sudeste 0 -- -- 66
2019-03-29 15:00:00 16 15 Sudeste 19 Sudeste 0 -- -- 63
2019-03-29 14:00:00 16.1 15 Este 18 Este 0 -- -- 59
2019-03-29 13:00:00 15.7 10 Este 18 Este 0 -- -- 72
2019-03-29 12:00:00 15 15 Este 19 Sudeste 0 -- -- 75
2019-03-29 11:00:00 14.9 15 Este 20 Este 0 -- -- 71
2019-03-29 10:00:00 13.6 15 Este 18 Este 0 -- -- 72
2019-03-29 09:00:00 12.6 8 Nordeste 14 Nordeste 0 -- -- 61
2019-03-29 08:00:00 10.5 9 Norte 18 Norte 0 -- -- 61
2019-03-29 07:00:00 9 9 Norte 18 Nordeste 0 -- -- 64
2019-03-29 06:00:00 8.5 9 Norte 15 Norte 0 -- -- 66
2019-03-29 05:00:00 10.6 7 Norte 10 Norte 0 -- -- 59
2019-03-29 04:00:00 10.8 6 Noroeste 11 Norte 0 -- -- 61
2019-03-29 03:00:00 11.2 6 Norte 9 Norte 0 -- -- 64
2019-03-29 02:00:00 11.1 3 Norte 14 Norte 0 -- -- 70
2019-03-29 01:00:00 11.6 6 Norte 17 Noroeste 0 -- -- 66
2019-03-29 00:00:00 12.5 4 Noroeste 10 Noroeste 0 -- -- 59
2019-03-28 23:00:00 12.6 6 Oeste 12 Oeste 0 -- -- 66
2019-03-28 22:00:00 12.3 3 Oeste 6 Sudoeste 0 -- -- 68
2019-03-28 21:00:00 11.9 0 Calma 6 Sudeste 0 -- -- 74
2019-03-28 20:00:00 12.8 4 Sudeste 7 Sudeste 0 -- -- 72
2019-03-28 19:00:00 13.5 5 Sudeste 10 Sudeste 0 -- -- 65
2019-03-28 18:00:00 14.6 7 Sudeste 14 Sudeste 0 -- -- 64
2019-03-28 17:00:00 15 10 Sudeste 20 Sudeste 0 -- -- 64
2019-03-28 16:00:00 14.9 15 Sudeste 22 Sur 0 -- -- 60
2019-03-28 15:00:00 15.2 16 Sudeste 24 Sudeste 0 -- -- 63
2019-03-28 14:00:00 16.1 13 Sur 20 Sur 0 -- -- 56
2019-03-28 13:00:00 16.2 11 Sudeste 16 Sudeste 0 -- -- 52
2019-03-28 12:00:00 16.5 10 Sudeste 14 Este 0 -- -- 47
2019-03-28 11:00:00 15.9 9 Este 20 Este 0 -- -- 47
2019-03-28 10:00:00 14.8 6 Norte 15 Nordeste 0 -- -- 48
2019-03-28 09:00:00 12.9 8 Norte 16 Norte 0 -- -- 55
2019-03-28 08:00:00 10.3 10 Norte 18 Norte 0 -- -- 63
2019-03-28 07:00:00 8.9 11 Norte 18 Norte 0 -- -- 66
2019-03-28 06:00:00 8.8 12 Norte 20 Norte 0 -- -- 67
2019-03-28 05:00:00 9.4 12 Norte 21 Norte 0 -- -- 64
2019-03-28 04:00:00 9.4 10 Norte 20 Norte 0 -- -- 67
2019-03-28 03:00:00 10.2 12 Norte 18 Norte 0 -- -- 67
2019-03-28 02:00:00 10.3 9 Norte 15 Norte 0 -- -- 68
2019-03-28 01:00:00 11.2 8 Norte 12 Norte 0 -- -- 66
2019-03-28 00:00:00 11.4 3 Norte 10 Norte 0 -- -- 66
2019-03-27 23:00:00 12 6 Nordeste 12 Oeste 0 -- -- 63
2019-03-27 22:00:00 12.4 6 Oeste 14 Noroeste 0 -- -- 64
2019-03-27 21:00:00 12.2 8 Oeste 13 Sudoeste 0 -- -- 66
2019-03-27 20:00:00 11.9 9 Sudoeste 12 Sudoeste 0 -- -- 66
2019-03-27 19:00:00 12.7 8 Sur 14 Sur 0 -- -- 63
2019-03-27 18:00:00 13.7 10 Sur 19 Sudeste 0 -- -- 59
2019-03-27 17:00:00 14 15 Sudeste 22 Sudeste 0 -- -- 57
2019-03-27 16:00:00 14.8 14 Sudeste 23 Sur 0 -- -- 53
2019-03-27 15:00:00 14.3 17 Sur 26 Sur 0 -- -- 58
2019-03-27 14:00:00 13.7 20 Sur 31 Sudoeste 0 -- -- 55
2019-03-27 13:00:00 13.6 26 Sudoeste 32 Sur 0 -- -- 60
2019-03-27 12:00:00 14.3 21 Sur 27 Sudoeste 0 -- -- 55
2019-03-27 11:00:00 15.2 11 Sur 16 Sudeste 0 -- -- 52
2019-03-27 10:00:00 14.5 5 Este 14 Norte 0 -- -- 47
2019-03-27 09:00:00 11.8 9 Norte 15 Norte 0 -- -- 51
2019-03-27 08:00:00 9.6 10 Norte 18 Norte 0 -- -- 59
2019-03-27 07:00:00 7.4 11 Norte 17 Norte 0 -- -- 63
2019-03-27 06:00:00 8.2 6 Norte 16 Norte 0 -- -- 60
2019-03-27 05:00:00 8.7 12 Norte 15 Norte 0 -- -- 59
2019-03-27 04:00:00 9.2 7 Norte 24 Noroeste 0 -- -- 60
2019-03-27 03:00:00 10.1 10 Norte 13 Norte 0 -- -- 60
2019-03-27 02:00:00 10.5 7 Norte 10 Norte 0 -- -- 59
2019-03-27 01:00:00 11.2 5 Nordeste 17 Oeste 0 -- -- 57
2019-03-27 00:00:00 12.4 6 Oeste 20 Oeste 0 -- -- 52